Time;durP1;ratioP1;P1;durP2;ratioP2;P2;SDS_P1;SDS_P2;PMS_P1;PMS_P2;Temp;Humidity;BMP_temperature;BMP_pressure;BME280_temperature;BME280_humidity;BME280_pressure;Samples;Min_cycle;Max_cycle;Signal;HPM_P1;HPM_P2
2023/07/03 00:02:18;;;;;;;;;;;;;;;29.32;39.60;94142.19;4982994;28;7330;-61
2023/07/03 00:05:11;;;;;;;;;;;;;;;29.33;39.21;94140.94;4998527;28;7243;-61
2023/07/03 00:07:55;;;;;;;;;;;;;;;29.32;39.46;94139.44;4932745;29;7269;-62
2023/07/03 00:10:32;;;;;;;;;;;;;;;29.33;38.69;94140.19;4916090;29;7301;-61
2023/07/03 00:13:33;;;;;;;;;;;;;;;29.32;39.12;94144.25;4933345;28;7154;-62
2023/07/03 00:16:18;;;;;;;;;;;;;;;29.31;38.97;94137.22;4888051;29;7004;-57
2023/07/03 00:18:58;;;;;;;;;;;;;;;29.29;39.34;94139.78;4887613;29;7269;-56
2023/07/03 00:21:25;;;;;;;;;;;;;;;29.32;39.60;94144.25;4887345;29;7278;-57
2023/07/03 00:24:02;;;;;;;;;;;;;;;29.33;39.05;94134.63;4870414;29;6965;-56
2023/07/03 00:26:43;;;;;;;;;;;;;;;29.32;39.14;94136.66;4873372;29;7219;-56
2023/07/03 00:29:13;;;;;;;;;;;;;;;29.34;38.57;94142.41;4889171;29;8683;-56
2023/07/03 00:31:41;;;;;;;;;;;;;;;29.32;38.70;94150.50;4886988;29;7136;-57
2023/07/03 00:34:22;;;;;;;;;;;;;;;29.29;38.84;94140.53;4872120;29;7240;-56
2023/07/03 00:36:57;;;;;;;;;;;;;;;29.31;38.64;94142.75;4871208;29;8222;-56
2023/07/03 00:40:02;;;;;;;;;;;;;;;29.30;39.61;94146.78;4887583;29;8951;-56
2023/07/03 00:42:41;;;;;;;;;;;;;;;29.30;38.36;94152.34;4885784;29;7274;-56
2023/07/03 00:45:19;;;;;;;;;;;;;;;29.29;39.46;94145.31;4916192;29;9156;-56
2023/07/03 00:47:48;;;;;;;;;;;;;;;29.31;38.22;94151.06;4940274;28;7352;-57
2023/07/03 00:50:29;;;;;;;;;;;;;;;29.30;39.28;94149.56;4960710;28;8843;-56
2023/07/03 00:53:10;;;;;;;;;;;;;;;29.30;38.20;94152.34;4999132;28;7261;-57
2023/07/03 00:55:40;;;;;;;;;;;;;;;29.28;38.67;94149.38;4982879;28;9594;-57
2023/07/03 00:58:15;;;;;;;;;;;;;;;29.28;38.58;94150.13;4982461;28;7187;-57
2023/07/03 01:00:51;;;;;;;;;;;;;;;29.28;39.19;94146.59;4966413;28;7293;-57
2023/07/03 01:03:37;;;;;;;;;;;;;;;29.25;38.25;94144.94;4985352;28;9958;-57
2023/07/03 01:06:23;;;;;;;;;;;;;;;29.22;38.54;94152.28;4983149;28;7358;-56
2023/07/03 01:09:11;;;;;;;;;;;;;;;29.21;39.13;94150.06;4983723;28;8999;-56
2023/07/03 01:11:57;;;;;;;;;;;;;;;29.19;39.32;94141.56;4979270;28;7300;-56
2023/07/03 01:14:44;;;;;;;;;;;;;;;29.16;38.94;94142.59;4983681;28;9293;-56
2023/07/03 01:17:14;;;;;;;;;;;;;;;29.14;38.80;94136.84;4983779;28;7217;-56
2023/07/03 01:19:55;;;;;;;;;;;;;;;29.14;38.52;94137.59;4986774;28;7181;-57
2023/07/03 01:22:37;;;;;;;;;;;;;;;29.14;38.17;94145.16;4978452;28;8078;-56
2023/07/03 01:25:09;;;;;;;;;;;;;;;29.13;38.81;94151.97;4981284;28;8503;-64
2023/07/03 01:28:12;;;;;;;;;;;;;;;29.13;38.51;94155.50;4979664;28;7739;-64
2023/07/03 01:30:44;;;;;;;;;;;;;;;29.10;39.30;94154.53;4927507;29;7244;-64
2023/07/03 01:33:33;;;;;;;;;;;;;;;29.12;39.07;94153.28;4925860;28;7007;-64
2023/07/03 01:39:51;;;;;;;;;;;;;;;29.09;38.82;94160.63;4946469;28;7061;-64
2023/07/03 01:42:55;;;;;;;;;;;;;;;29.09;38.42;94161.38;4927736;28;8805;-64
2023/07/03 01:45:33;;;;;;;;;;;;;;;29.07;39.07;94161.19;4905132;29;7266;-64
2023/07/03 01:48:11;;;;;;;;;;;;;;;29.07;38.83;94165.97;4904832;29;8755;-64
2023/07/03 01:50:53;;;;;;;;;;;;;;;29.05;38.96;94160.97;4908865;29;8788;-64
2023/07/03 01:54:16;;;;;;;;;;;;;;;29.08;39.08;94154.34;4908944;29;7279;-64
2023/07/03 01:56:57;;;;;;;;;;;;;;;29.06;38.79;94147.84;4902311;29;7440;-64
2023/07/03 01:59:40;;;;;;;;;;;;;;;29.03;38.21;94146.94;4904451;29;7382;-64
2023/07/03 02:02:27;;;;;;;;;;;;;;;29.03;39.21;94149.69;4889576;29;7071;-64
2023/07/03 02:05:08;;;;;;;;;;;;;;;29.03;39.05;94149.69;4891040;29;9053;-64
2023/07/03 02:07:41;;;;;;;;;;;;;;;29.03;38.64;94154.47;4900837;29;7181;-64
2023/07/03 02:10:08;;;;;;;;;;;;;;;29.04;39.07;94156.69;4902980;29;7241;-64
2023/07/03 02:12:55;;;;;;;;;;;;;;;29.01;38.38;94149.47;4917301;29;8463;-64
2023/07/03 02:15:39;;;;;;;;;;;;;;;29.03;38.87;94148.94;4916859;29;7481;-64
2023/07/03 02:18:07;;;;;;;;;;;;;;;29.02;38.64;94145.44;4915696;29;9122;-64
2023/07/03 02:20:36;;;;;;;;;;;;;;;29.02;38.71;94148.19;4901189;29;9367;-64
2023/07/03 02:23:02;;;;;;;;;;;;;;;29.03;38.14;94155.22;4900069;29;7364;-64
2023/07/03 02:25:28;;;;;;;;;;;;;;;29.01;39.05;94149.47;4894381;29;9052;-64
2023/07/03 02:27:53;;;;;;;;;;;;;;;29.02;38.53;94152.97;4962179;28;7220;-64
2023/07/03 02:30:20;;;;;;;;;;;;;;;29.00;38.21;94153.53;4982269;28;8099;-64
2023/07/03 02:32:51;;;;;;;;;;;;;;;28.99;38.19;94145.78;4987253;28;7447;-64
2023/07/03 02:35:42;;;;;;;;;;;;;;;29.01;38.31;94160.53;5000424;28;7135;-64
2023/07/03 02:38:16;;;;;;;;;;;;;;;29.00;38.46;94150.75;5003530;28;7076;-65
2023/07/03 02:40:48;;;;;;;;;;;;;;;29.00;37.85;94153.53;4965391;28;7243;-64
2023/07/03 02:43:24;;;;;;;;;;;;;;;29.00;38.44;94158.31;5001171;28;7686;-64
2023/07/03 02:45:50;;;;;;;;;;;;;;;28.98;38.23;94156.09;4968535;28;9188;-64
2023/07/03 02:48:23;;;;;;;;;;;;;;;28.98;37.92;94158.13;4999118;28;7145;-64
2023/07/03 02:51:13;;;;;;;;;;;;;;;28.98;38.69;94150.56;4986847;28;7064;-64
2023/07/03 02:53:42;;;;;;;;;;;;;;;28.96;38.48;94157.91;4986533;28;7292;-64
2023/07/03 02:56:12;;;;;;;;;;;;;;;28.97;37.87;94160.13;4969021;28;7264;-64
2023/07/03 02:58:39;;;;;;;;;;;;;;;28.97;38.78;94162.91;4989927;28;7714;-64
2023/07/03 03:01:08;;;;;;;;;;;;;;;28.95;38.84;94159.94;4983420;28;7060;-64
2023/07/03 03:03:37;;;;;;;;;;;;;;;28.96;38.54;94161.44;4981387;28;9728;-64
2023/07/03 03:06:08;;;;;;;;;;;;;;;28.96;38.63;94158.66;4983703;28;7153;-64
2023/07/03 03:08:35;;;;;;;;;;;;;;;28.96;38.17;94155.16;4965356;28;7297;-64
2023/07/03 03:11:03;;;;;;;;;;;;;;;28.96;38.55;94164.19;4989099;28;9109;-64
2023/07/03 03:13:38;;;;;;;;;;;;;;;28.96;38.44;94163.44;4987744;28;8787;-64
2023/07/03 03:16:04;;;;;;;;;;;;;;;28.97;37.99;94160.13;4972634;28;7232;-64
2023/07/03 03:18:35;;;;;;;;;;;;;;;28.97;37.76;94160.13;4986896;28;9110;-64
2023/07/03 03:21:33;;;;;;;;;;;;;;;28.97;38.38;94157.38;4988542;28;6904;-64
2023/07/03 03:24:06;;;;;;;;;;;;;;;28.98;38.23;94161.63;4984543;28;8820;-64
2023/07/03 03:26:33;;;;;;;;;;;;;;;28.98;37.73;94156.09;4983793;28;9455;-64
2023/07/03 03:29:02;;;;;;;;;;;;;;;29.00;38.52;94158.31;4967680;28;9227;-64
2023/07/03 03:31:58;;;;;;;;;;;;;;;28.98;38.65;94161.63;4967563;28;6939;-64
2023/07/03 03:34:40;;;;;;;;;;;;;;;28.97;37.82;94160.13;4960324;28;9754;-64
2023/07/03 03:37:31;;;;;;;;;;;;;;;28.97;38.40;94154.59;4965095;28;7274;-64
2023/07/03 03:40:08;;;;;;;;;;;;;;;28.99;38.01;94156.84;4946486;28;9445;-64
2023/07/03 03:42:49;;;;;;;;;;;;;;;28.98;38.66;94149.81;4965568;28;9173;-64
2023/07/03 03:45:25;;;;;;;;;;;;;;;28.98;37.54;94153.31;4970765;28;9032;-64
2023/07/03 03:48:41;;;;;;;;;;;;;;;28.97;37.47;94146.28;4946104;28;7263;-64
2023/07/03 03:51:12;;;;;;;;;;;;;;;28.95;38.45;94146.09;4904825;29;9039;-64
2023/07/03 03:53:39;;;;;;;;;;;;;;;28.95;37.89;94150.88;4904097;29;7185;-64
2023/07/03 03:56:16;;;;;;;;;;;;;;;28.95;38.53;94154.41;4895486;29;7142;-64
2023/07/03 03:58:41;;;;;;;;;;;;;;;28.95;38.36;94151.63;4897258;29;7181;-64
2023/07/03 04:01:09;;;;;;;;;;;;;;;28.93;37.88;94148.66;4895237;29;7318;-64
2023/07/03 04:03:35;;;;;;;;;;;;;;;28.92;37.58;94149.94;4906164;29;9742;-64
2023/07/03 04:06:37;;;;;;;;;;;;;;;28.93;37.74;94154.19;4902098;29;7246;-64
2023/07/03 04:09:21;;;;;;;;;;;;;;;28.94;37.47;94149.41;4871152;29;7223;-64
2023/07/03 04:12:03;;;;;;;;;;;;;;;28.94;38.46;94155.69;4858968;29;7367;-64
2023/07/03 04:14:42;;;;;;;;;;;;;;;28.94;38.07;94157.72;4871693;29;9109;-64
2023/07/03 04:17:19;;;;;;;;;;;;;;;28.94;38.08;94155.69;4868653;29;8796;-64
2023/07/03 04:19:59;;;;;;;;;;;;;;;28.95;37.84;94164.72;4871947;29;7241;-64
2023/07/03 04:22:26;;;;;;;;;;;;;;;28.94;38.72;94163.25;4853972;29;10481;-63
2023/07/03 04:24:53;;;;;;;;;;;;;;;28.94;38.54;94163.25;4867318;29;6986;-63
2023/07/03 04:27:19;;;;;;;;;;;;;;;28.91;38.42;94156.00;4894935;28;7115;-63
2023/07/03 04:29:45;;;;;;;;;;;;;;;28.92;38.79;94168.59;4929701;28;8815;-63
2023/07/03 04:32:11;;;;;;;;;;;;;;;28.95;38.04;94167.50;4955434;28;6988;-63
2023/07/03 04:34:38;;;;;;;;;;;;;;;28.95;38.14;94165.47;4923881;28;7260;-63
2023/07/03 04:37:04;;;;;;;;;;;;;;;28.97;38.55;94167.72;4940498;28;7558;-63
2023/07/03 04:39:32;;;;;;;;;;;;;;;28.97;38.09;94167.72;4940233;28;7207;-63
2023/07/03 04:42:02;;;;;;;;;;;;;;;28.96;38.26;94169.00;4938906;28;8501;-64
2023/07/03 04:44:28;;;;;;;;;;;;;;;28.98;37.88;94167.19;4956827;28;7978;-64
2023/07/03 04:47:04;;;;;;;;;;;;;;;28.97;38.09;94170.50;4962279;28;8778;-64
2023/07/03 04:49:32;;;;;;;;;;;;;;;28.98;38.84;94164.41;4978647;28;7708;-63
2023/07/03 04:52:00;;;;;;;;;;;;;;;28.98;38.93;94172.72;4964367;28;9355;-64
2023/07/03 04:54:29;;;;;;;;;;;;;;;28.96;38.55;94174.53;4962517;28;9278;-61
2023/07/03 04:56:56;;;;;;;;;;;;;;;28.90;38.85;94171.91;4979195;28;7520;-62
2023/07/03 04:59:22;;;;;;;;;;;;;;;28.92;38.38;94169.34;4964061;28;8041;-61
2023/07/03 05:01:48;;;;;;;;;;;;;;;28.90;38.39;94169.13;4995378;28;8049;-61
2023/07/03 05:04:21;;;;;;;;;;;;;;;28.91;39.02;94170.59;4963507;28;7364;-61
2023/07/03 05:06:51;;;;;;;;;;;;;;;28.90;38.94;94177.44;4963274;28;7000;-62
2023/07/03 05:09:20;;;;;;;;;;;;;;;28.90;38.97;94177.44;4978388;28;7216;-62
2023/07/03 05:11:48;;;;;;;;;;;;;;;28.90;38.60;94176.69;4979441;28;6965;-62
2023/07/03 05:14:23;;;;;;;;;;;;;;;28.88;38.31;94174.44;4984076;28;8753;-61
2023/07/03 05:16:49;;;;;;;;;;;;;;;28.88;39.95;94168.19;4985058;28;7408;-61
2023/07/03 05:19:47;;;;;;;;;;;;;;;28.90;39.63;94180.22;4980279;28;7253;-62
2023/07/03 05:22:29;;;;;;;;;;;;;;;28.92;39.68;94176.88;4910064;29;9168;-61
2023/07/03 05:25:05;;;;;;;;;;;;;;;28.93;39.13;94178.38;4908785;29;6950;-61
2023/07/03 05:27:44;;;;;;;;;;;;;;;28.94;38.67;94186.16;4915356;29;8891;-61
2023/07/03 05:30:11;;;;;;;;;;;;;;;28.92;38.79;94174.88;4923601;28;9547;-61
2023/07/03 05:32:39;;;;;;;;;;;;;;;28.91;38.77;94180.94;4926249;28;8089;-61
2023/07/03 05:35:09;;;;;;;;;;;;;;;28.89;39.64;94186.25;4940105;28;6955;-61
2023/07/03 05:38:05;;;;;;;;;;;;;;;28.89;39.18;94187.00;4922687;29;6972;-61
2023/07/03 05:41:00;;;;;;;;;;;;;;;28.90;38.66;94196.81;4914951;29;9261;-61
2023/07/03 05:43:29;;;;;;;;;;;;;;;28.90;38.85;94190.53;4908371;29;8824;-61
2023/07/03 05:45:55;;;;;;;;;;;;;;;28.88;38.95;94193.09;4924176;29;7000;-61
2023/07/03 05:48:26;;;;;;;;;;;;;;;28.84;38.42;94193.41;4924015;29;7172;-61
2023/07/03 05:50:52;;;;;;;;;;;;;;;28.89;38.27;94198.09;4923482;29;7244;-61
2023/07/03 05:53:34;;;;;;;;;;;;;;;28.86;38.15;94198.44;4906923;29;6980;-61
2023/07/03 05:56:07;;;;;;;;;;;;;;;28.87;38.13;94203.41;4935854;29;6976;-61
2023/07/03 05:58:41;;;;;;;;;;;;;;;28.86;38.76;94204.69;4958673;28;6879;-62
2023/07/03 06:01:08;;;;;;;;;;;;;;;28.88;37.90;94207.66;5002996;28;7255;-62
2023/07/03 06:03:47;;;;;;;;;;;;;;;28.87;38.30;94203.41;4982890;28;8954;-63
2023/07/03 06:06:16;;;;;;;;;;;;;;;28.85;37.80;94205.22;4978184;28;7146;-63
2023/07/03 06:08:48;;;;;;;;;;;;;;;28.87;37.89;94206.19;4977245;28;7232;-63
2023/07/03 06:11:23;;;;;;;;;;;;;;;28.88;38.53;94202.13;4975403;28;9410;-63
2023/07/03 06:14:01;;;;;;;;;;;;;;;28.87;38.31;94197.13;4972715;28;9107;-63
2023/07/03 06:16:34;;;;;;;;;;;;;;;28.88;37.69;94202.13;4985806;28;7337;-63
2023/07/03 06:19:05;;;;;;;;;;;;;;;28.89;37.58;94214.69;4973541;28;6986;-63
2023/07/03 06:21:43;;;;;;;;;;;;;;;28.90;38.37;94207.88;4978323;28;9795;-63
2023/07/03 06:24:17;;;;;;;;;;;;;;;28.90;38.87;94216.19;4978698;28;9574;-63
2023/07/03 06:26:57;;;;;;;;;;;;;;;28.90;38.28;94216.19;4988069;28;8949;-63
2023/07/03 06:29:24;;;;;;;;;;;;;;;28.91;38.35;94209.38;4968482;28;8743;-63
2023/07/03 06:31:53;;;;;;;;;;;;;;;28.92;38.29;94212.88;4983962;28;8469;-63
2023/07/03 06:34:20;;;;;;;;;;;;;;;28.89;38.45;94214.69;4967617;28;7320;-63
2023/07/03 06:37:00;;;;;;;;;;;;;;;28.85;38.29;94211.50;4974659;28;7008;-63
2023/07/03 06:39:48;;;;;;;;;;;;;;;28.87;38.58;94214.50;4986329;28;8580;-63
2023/07/03 06:42:36;;;;;;;;;;;;;;;28.87;38.01;94228.34;4989241;28;9149;-63
2023/07/03 06:45:36;;;;;;;;;;;;;;;28.86;37.77;94215.75;4988939;28;9124;-63
2023/07/03 06:48:09;;;;;;;;;;;;;;;28.88;37.93;94224.28;4986016;28;8838;-63
2023/07/03 06:50:37;;;;;;;;;;;;;;;28.86;38.51;94221.28;4974929;28;7255;-63
2023/07/03 06:53:13;;;;;;;;;;;;;;;28.87;38.20;94222.03;4970569;28;7211;-64
2023/07/03 06:55:57;;;;;;;;;;;;;;;28.88;38.13;94224.28;4987273;28;9127;-63
2023/07/03 06:58:27;;;;;;;;;;;;;;;28.89;38.60;94223.00;4988114;28;7388;-63
2023/07/03 07:01:31;;;;;;;;;;;;;;;28.90;38.49;94220.97;4974690;28;7133;-64
2023/07/03 07:04:06;;;;;;;;;;;;;;;28.92;38.32;94224.72;4987149;28;9521;-63
2023/07/03 07:06:54;;;;;;;;;;;;;;;28.97;38.02;94228.63;4990318;28;8744;-64
2023/07/03 07:09:34;;;;;;;;;;;;;;;28.99;38.25;94223.31;4986494;28;8661;-64
2023/07/03 07:12:05;;;;;;;;;;;;;;;29.01;37.97;94220.75;4968784;28;7424;-64
2023/07/03 07:14:39;;;;;;;;;;;;;;;29.00;38.58;94219.25;4969329;28;8864;-62
2023/07/03 07:17:07;;;;;;;;;;;;;;;28.98;38.71;94230.84;4982047;28;7325;-62
2023/07/03 07:19:34;;;;;;;;;;;;;;;28.92;37.71;94224.72;5001676;28;7370;-62
2023/07/03 07:22:16;;;;;;;;;;;;;;;28.97;38.45;94234.91;4986223;28;7205;-62
2023/07/03 07:24:43;;;;;;;;;;;;;;;28.96;37.71;94224.38;4998668;28;7361;-62
2023/07/03 07:27:12;;;;;;;;;;;;;;;28.96;38.19;94229.91;4970363;28;7326;-62
2023/07/03 07:29:47;;;;;;;;;;;;;;;28.97;38.07;94223.81;4998036;28;7166;-62
2023/07/03 07:32:15;;;;;;;;;;;;;;;28.97;37.77;94221.06;4982503;28;7224;-62
2023/07/03 07:34:44;;;;;;;;;;;;;;;28.98;37.68;94219.78;4978567;28;8653;-62
2023/07/03 07:37:11;;;;;;;;;;;;;;;28.98;37.82;94216.25;4979451;28;8181;-62
2023/07/03 07:39:44;;;;;;;;;;;;;;;29.03;38.15;94224.47;4969969;28;8990;-62
2023/07/03 07:42:15;;;;;;;;;;;;;;;29.04;38.38;94216.88;4980012;28;7466;-62
2023/07/03 07:45:09;;;;;;;;;;;;;;;29.08;37.59;94225.59;4980442;28;9112;-62
2023/07/03 07:47:36;;;;;;;;;;;;;;;29.07;38.12;94216.56;4984813;28;9178;-62
2023/07/03 07:50:02;;;;;;;;;;;;;;;29.08;38.00;94218.03;4966482;28;9058;-62
2023/07/03 07:52:30;;;;;;;;;;;;;;;29.12;37.75;94216.97;4975103;28;8752;-62
2023/07/03 07:55:06;;;;;;;;;;;;;;;29.09;38.45;94216.00;4969570;28;8753;-62
2023/07/03 07:57:33;;;;;;;;;;;;;;;29.10;37.77;94223.78;4983749;28;8774;-62
2023/07/03 08:00:03;;;;;;;;;;;;;;;29.06;38.13;94206.75;4978958;28;9211;-62
2023/07/03 08:02:29;;;;;;;;;;;;;;;29.12;38.47;94214.19;4981068;28;7280;-62
2023/07/03 08:04:56;;;;;;;;;;;;;;;29.12;38.59;94219.75;4997451;28;9119;-62
2023/07/03 08:07:24;;;;;;;;;;;;;;;29.12;38.55;94212.19;4982161;28;6996;-62
2023/07/03 08:09:58;;;;;;;;;;;;;;;29.15;38.43;94218.66;4965041;28;6858;-62
2023/07/03 08:12:24;;;;;;;;;;;;;;;29.17;38.04;94210.59;4995871;28;7244;-63
2023/07/03 08:14:51;;;;;;;;;;;;;;;29.18;37.71;94214.84;4982538;28;7285;-62
2023/07/03 08:17:18;;;;;;;;;;;;;;;29.18;38.03;94212.81;4965855;28;7087;-63
2023/07/03 08:19:48;;;;;;;;;;;;;;;29.19;38.12;94210.78;4979794;28;7075;-62
2023/07/03 08:22:14;;;;;;;;;;;;;;;29.19;38.07;94213.56;4964452;28;9101;-63
2023/07/03 08:24:42;;;;;;;;;;;;;;;29.17;38.50;94213.38;4980309;28;7132;-62
2023/07/03 08:27:10;;;;;;;;;;;;;;;29.20;38.73;94215.03;4963231;28;7456;-62
2023/07/03 08:29:37;;;;;;;;;;;;;;;29.19;38.29;94214.28;4980375;28;8975;-63
2023/07/03 08:32:08;;;;;;;;;;;;;;;29.22;38.45;94204.16;4966863;28;7242;-62
2023/07/03 08:34:34;;;;;;;;;;;;;;;29.23;38.16;94208.44;4980221;28;7107;-62
2023/07/03 08:37:00;;;;;;;;;;;;;;;29.24;38.02;94209.91;4981784;28;7032;-62
2023/07/03 08:39:26;;;;;;;;;;;;;;;29.25;38.16;94216.94;4964625;28;7348;-62
2023/07/03 08:42:04;;;;;;;;;;;;;;;29.25;38.15;94203.84;4969194;28;7071;-63
2023/07/03 08:44:33;;;;;;;;;;;;;;;29.27;38.50;94203.28;4979398;28;9136;-62
2023/07/03 08:47:05;;;;;;;;;;;;;;;29.27;38.20;94214.38;4980768;28;7643;-62
2023/07/03 08:49:36;;;;;;;;;;;;;;;29.25;37.72;94206.63;4980404;28;7007;-62
2023/07/03 08:52:40;;;;;;;;;;;;;;;29.25;38.39;94208.63;4999795;28;7288;-62
2023/07/03 08:55:11;;;;;;;;;;;;;;;29.25;38.67;94206.63;4963462;28;7231;-62
2023/07/03 08:57:39;;;;;;;;;;;;;;;29.26;38.52;94208.09;4964711;28;7138;-63
2023/07/03 09:00:11;;;;;;;;;;;;;;;29.29;38.09;94220.13;4966641;28;9123;-62
2023/07/03 09:02:54;;;;;;;;;;;;;;;29.28;38.54;94219.38;4982296;28;7069;-62
2023/07/03 09:05:51;;;;;;;;;;;;;;;29.27;38.08;94220.66;4983379;28;7289;-62
2023/07/03 09:08:47;;;;;;;;;;;;;;;29.28;38.00;94221.38;4970672;28;7280;-62
2023/07/03 09:11:27;;;;;;;;;;;;;;;29.28;37.71;94224.16;4982840;28;7255;-62
2023/07/03 09:13:59;;;;;;;;;;;;;;;29.28;38.48;94224.91;4964073;28;7578;-63
2023/07/03 09:16:32;;;;;;;;;;;;;;;29.28;38.76;94222.13;4968331;28;8869;-62
2023/07/03 09:19:25;;;;;;;;;;;;;;;29.29;38.44;94220.13;4986030;28;7866;-62
2023/07/03 09:22:00;;;;;;;;;;;;;;;29.30;38.34;94218.81;4994821;28;7003;-62
2023/07/03 09:24:46;;;;;;;;;;;;;;;29.30;38.38;94224.38;4965191;28;7505;-63
2023/07/03 09:27:20;;;;;;;;;;;;;;;29.32;38.77;94217.00;4976642;28;7246;-63
2023/07/03 09:29:49;;;;;;;;;;;;;;;29.32;38.55;94213.50;4979071;28;7235;-63
2023/07/03 09:32:30;;;;;;;;;;;;;;;29.31;38.11;94220.31;4998728;28;7490;-63
2023/07/03 09:35:09;;;;;;;;;;;;;;;29.32;38.63;94219.06;4997594;28;7148;-64
2023/07/03 09:37:45;;;;;;;;;;;;;;;29.33;37.91;94221.28;4982602;28;7216;-64
2023/07/03 09:40:28;;;;;;;;;;;;;;;29.33;38.40;94220.53;4984564;28;7109;-64
2023/07/03 09:43:14;;;;;;;;;;;;;;;29.32;38.33;94216.28;4983149;28;7238;-65
2023/07/03 09:45:42;;;;;;;;;;;;;;;29.32;38.28;94224.59;4978696;28;9059;-64
2023/07/03 09:48:30;;;;;;;;;;;;;;;29.32;38.59;94221.81;4960092;28;9282;-64
2023/07/03 09:50:56;;;;;;;;;;;;;;;29.31;38.15;94223.09;4978157;28;7260;-64
2023/07/03 09:53:30;;;;;;;;;;;;;;;29.31;38.14;94221.06;4978342;28;8208;-64
2023/07/03 09:56:02;;;;;;;;;;;;;;;29.31;37.85;94218.31;4979044;28;7188;-64
2023/07/03 09:58:42;;;;;;;;;;;;;;;29.33;38.97;94220.53;4980730;28;9398;-64
2023/07/03 10:01:26;;;;;;;;;;;;;;;29.31;39.03;94221.06;4983172;28;7288;-64
2023/07/03 10:04:11;;;;;;;;;;;;;;;29.32;38.73;94219.06;4958484;28;7277;-64
2023/07/03 10:06:43;;;;;;;;;;;;;;;29.33;38.88;94212.22;4987574;28;9110;-64
2023/07/03 10:09:25;;;;;;;;;;;;;;;29.31;38.47;94212.75;4963529;28;7111;-64
2023/07/03 10:12:02;;;;;;;;;;;;;;;29.32;37.99;94211.47;4984695;28;6968;-64
2023/07/03 10:14:47;;;;;;;;;;;;;;;29.32;38.66;94214.22;4968292;28;7096;-64
2023/07/03 10:17:25;;;;;;;;;;;;;;;29.33;38.32;94218.50;4983028;28;7188;-64
2023/07/03 10:20:14;;;;;;;;;;;;;;;29.35;38.37;94221.47;4983399;28;7246;-64
2023/07/03 10:23:15;;;;;;;;;;;;;;;29.37;38.04;94207.81;4996155;28;7330;-64
2023/07/03 10:26:04;;;;;;;;;;;;;;;29.38;38.01;94214.88;4966401;28;9266;-64
2023/07/03 10:29:06;;;;;;;;;;;;;;;29.39;39.06;94210.03;4983705;28;6967;-64
2023/07/03 10:31:46;;;;;;;;;;;;;;;29.38;38.45;94214.88;4968765;28;7239;-64
2023/07/03 10:34:29;;;;;;;;;;;;;;;29.39;38.31;94219.09;4967252;28;7220;-64
2023/07/03 10:37:05;;;;;;;;;;;;;;;29.41;39.10;94215.78;4962138;28;7125;-64
2023/07/03 10:40:09;;;;;;;;;;;;;;;29.43;38.59;94221.53;4960895;28;7249;-64
2023/07/03 10:42:44;;;;;;;;;;;;;;;29.40;38.25;94215.06;4930230;29;7062;-64
2023/07/03 10:45:16;;;;;;;;;;;;;;;29.43;39.06;94218.75;4927664;29;7255;-63
2023/07/03 10:47:57;;;;;;;;;;;;;;;29.45;38.63;94210.69;4932669;29;8268;-62
2023/07/03 10:50:53;;;;;;;;;;;;;;;29.44;38.28;94206.41;4931027;28;7578;-63
2023/07/03 10:53:44;;;;;;;;;;;;;;;29.45;38.05;94207.91;4932883;29;7015;-63
2023/07/03 10:56:42;;;;;;;;;;;;;;;29.41;38.99;94204.72;4933260;28;7057;-62
2023/07/03 10:59:44;;;;;;;;;;;;;;;29.44;39.20;94209.94;4933035;29;7337;-63
2023/07/03 11:02:19;;;;;;;;;;;;;;;29.46;38.22;94198.28;4930366;28;7225;-62
2023/07/03 11:05:19;;;;;;;;;;;;;;;29.46;38.44;94206.59;4931546;28;9735;-62
2023/07/03 11:08:06;;;;;;;;;;;;;;;29.46;38.86;94193.50;4942049;28;7394;-63
2023/07/03 11:10:40;;;;;;;;;;;;;;;29.48;38.91;94188.16;4955313;28;7892;-63
2023/07/03 11:13:21;;;;;;;;;;;;;;;29.48;39.41;94198.50;4926478;28;6989;-62
2023/07/03 11:16:32;;;;;;;;;;;;;;;29.50;39.02;94199.44;4945371;28;7200;-62
2023/07/03 11:19:16;;;;;;;;;;;;;;;29.52;38.25;94199.66;4911322;29;7116;-63
2023/07/03 11:22:24;;;;;;;;;;;;;;;29.52;38.89;94196.88;4907614;29;7341;-63
2023/07/03 11:25:20;;;;;;;;;;;;;;;29.54;39.60;94196.31;4905601;29;7357;-63
2023/07/03 11:28:43;;;;;;;;;;;;;;;29.55;38.79;94206.13;4897126;29;7334;-62
2023/07/03 11:31:25;;;;;;;;;;;;;;;29.55;38.77;94195.06;4905213;29;9074;-63
2023/07/03 11:33:55;;;;;;;;;;;;;;;29.56;39.35;94202.06;4906611;29;9102;-63
2023/07/03 11:37:02;;;;;;;;;;;;;;;29.57;39.41;94184.91;4907499;29;7979;-63
2023/07/03 11:40:15;;;;;;;;;;;;;;;29.57;38.59;94189.69;4904712;29;9235;-63
2023/07/03 11:43:14;;;;;;;;;;;;;;;29.57;38.80;94182.13;4907917;29;7281;-63
2023/07/03 11:46:04;;;;;;;;;;;;;;;29.58;38.66;94177.34;4898165;29;7247;-63
2023/07/03 11:48:39;;;;;;;;;;;;;;;29.58;38.70;94189.16;4894117;29;7269;-63
2023/07/03 11:51:15;;;;;;;;;;;;;;;29.60;38.66;94192.13;4893257;29;7215;-63
2023/07/03 11:53:57;;;;;;;;;;;;;;;29.59;38.88;94181.59;4906214;29;9390;-62
2023/07/03 11:56:41;;;;;;;;;;;;;;;29.64;38.37;94194.56;4920265;28;7001;-62
2023/07/03 11:59:41;;;;;;;;;;;;;;;29.63;39.28;94177.19;4949517;28;8937;-61
2023/07/03 12:02:18;;;;;;;;;;;;;;;29.66;38.48;94183.69;4942138;28;7026;-62
2023/07/03 12:05:05;;;;;;;;;;;;;;;29.67;38.46;94179.59;4958653;28;7412;-62
2023/07/03 12:07:45;;;;;;;;;;;;;;;29.67;38.58;94174.06;4927977;28;7307;-62
2023/07/03 12:10:24;;;;;;;;;;;;;;;29.68;37.63;94181.09;4943557;28;7323;-61
2023/07/03 12:13:37;;;;;;;;;;;;;;;29.68;37.27;94181.09;4960540;28;9011;-61
2023/07/03 12:16:12;;;;;;;;;;;;;;;29.69;37.46;94183.34;4957814;28;8459;-62
2023/07/03 12:19:01;;;;;;;;;;;;;;;29.67;37.23;94185.16;4944507;28;6988;-62
2023/07/03 12:21:47;;;;;;;;;;;;;;;29.67;37.52;94182.38;4945129;28;7228;-62
2023/07/03 12:24:27;;;;;;;;;;;;;;;29.71;37.37;94182.81;4966695;28;7002;-62
2023/07/03 12:27:01;;;;;;;;;;;;;;;29.73;36.62;94183.00;4996622;28;7266;-61
2023/07/03 12:29:44;;;;;;;;;;;;;;;29.73;37.20;94180.94;4982890;28;9158;-62
2023/07/03 12:32:24;;;;;;;;;;;;;;;29.74;37.78;94176.94;4982112;28;7373;-62
2023/07/03 12:34:52;;;;;;;;;;;;;;;29.76;37.11;94187.47;4981607;28;7276;-61
2023/07/03 12:37:24;;;;;;;;;;;;;;;29.77;37.51;94184.19;4965735;28;7072;-62
2023/07/03 12:39:51;;;;;;;;;;;;;;;29.79;37.17;94178.84;4981193;28;9111;-61
2023/07/03 12:42:24;;;;;;;;;;;;;;;29.79;37.77;94187.16;4981589;28;7397;-62
2023/07/03 12:44:52;;;;;;;;;;;;;;;29.81;37.92;94183.81;4972948;28;7233;-62
2023/07/03 12:47:21;;;;;;;;;;;;;;;29.84;37.32;94187.53;4998535;28;7028;-61
2023/07/03 12:50:03;;;;;;;;;;;;;;;29.85;37.60;94184.22;4968214;28;9042;-62
2023/07/03 12:52:33;;;;;;;;;;;;;;;29.86;37.09;94187.75;4965978;28;7003;-61
2023/07/03 12:55:01;;;;;;;;;;;;;;;29.88;37.54;94177.59;4981773;28;7015;-61
2023/07/03 12:57:37;;;;;;;;;;;;;;;29.90;37.36;94186.09;4971090;28;8760;-62
2023/07/03 13:00:07;;;;;;;;;;;;;;;29.90;36.69;94183.34;4996167;28;9058;-61
2023/07/03 13:03:07;;;;;;;;;;;;;;;29.92;36.72;94180.75;4983364;28;9179;-61
2023/07/03 13:05:38;;;;;;;;;;;;;;;29.92;36.79;94182.78;4983804;28;9238;-63
2023/07/03 13:08:15;;;;;;;;;;;;;;;29.93;37.56;94181.50;4983390;28;8468;-63
2023/07/03 13:11:03;;;;;;;;;;;;;;;29.94;36.84;94172.63;4981321;28;9112;-63
2023/07/03 13:13:35;;;;;;;;;;;;;;;29.93;37.44;94173.91;4968239;28;8934;-63
2023/07/03 13:16:40;;;;;;;;;;;;;;;29.95;36.56;94176.88;4999144;28;9332;-61
2023/07/03 13:19:30;;;;;;;;;;;;;;;29.95;37.49;94187.97;4982864;28;7823;-62
2023/07/03 13:22:18;;;;;;;;;;;;;;;29.96;37.35;94175.59;4998999;28;7276;-61
2023/07/03 13:24:50;;;;;;;;;;;;;;;29.97;37.31;94168.75;4985186;28;7003;-61
2023/07/03 13:27:26;;;;;;;;;;;;;;;29.98;37.56;94172.28;4984166;28;6989;-61
2023/07/03 13:30:17;;;;;;;;;;;;;;;29.99;37.84;94177.28;4997764;28;7251;-61
2023/07/03 13:32:57;;;;;;;;;;;;;;;29.97;37.74;94168.03;4967695;28;7236;-61
2023/07/03 13:35:48;;;;;;;;;;;;;;;30.03;37.51;94172.13;4949739;28;7283;-61
2023/07/03 13:38:33;;;;;;;;;;;;;;;30.02;37.90;94181.75;4947844;28;7180;-61
2023/07/03 13:41:10;;;;;;;;;;;;;;;30.03;37.34;94174.91;4965883;28;7011;-61
2023/07/03 13:43:39;;;;;;;;;;;;;;;30.02;37.79;94181.75;4966016;28;7274;-61
2023/07/03 13:46:07;;;;;;;;;;;;;;;30.01;36.49;94171.94;4950330;28;9066;-60
2023/07/03 13:48:33;;;;;;;;;;;;;;;30.01;37.55;94174.72;4968621;28;7101;-61
2023/07/03 13:51:02;;;;;;;;;;;;;;;30.04;36.54;94167.31;4960279;28;7200;-61
2023/07/03 13:53:28;;;;;;;;;;;;;;;30.03;37.49;94171.38;4963858;28;9217;-61
2023/07/03 13:56:04;;;;;;;;;;;;;;;30.02;36.86;94169.88;4950478;28;7796;-61
2023/07/03 13:58:33;;;;;;;;;;;;;;;30.03;38.01;94169.38;4966133;28;7270;-61